sensor_id;sensor_type;location;lat;lon;timestamp;P1;durP1;ratioP1;P2;durP2;ratioP2
4909;SDS011;2470;49.868;8.660;2023-04-15T00:00:10;3.70;;;1.93;;
4909;SDS011;2470;49.868;8.660;2023-04-15T00:02:36;3.10;;;2.03;;
4909;SDS011;2470;49.868;8.660;2023-04-15T00:05:02;3.20;;;1.80;;
4909;SDS011;2470;49.868;8.660;2023-04-15T00:07:28;5.73;;;2.23;;
4909;SDS011;2470;49.868;8.660;2023-04-15T00:09:54;2.73;;;1.90;;
4909;SDS011;2470;49.868;8.660;2023-04-15T00:12:21;3.23;;;1.70;;
4909;SDS011;2470;49.868;8.660;2023-04-15T00:14:47;2.70;;;1.83;;
4909;SDS011;2470;49.868;8.660;2023-04-15T00:17:14;4.63;;;1.80;;
4909;SDS011;2470;49.868;8.660;2023-04-15T00:19:39;7.33;;;1.97;;
4909;SDS011;2470;49.868;8.660;2023-04-15T00:22:05;3.10;;;1.80;;
4909;SDS011;2470;49.868;8.660;2023-04-15T00:24:31;2.47;;;1.57;;
4909;SDS011;2470;49.868;8.660;2023-04-15T00:26:56;3.77;;;2.03;;
4909;SDS011;2470;49.868;8.660;2023-04-15T00:29:22;7.03;;;2.60;;
4909;SDS011;2470;49.868;8.660;2023-04-15T00:31:48;3.47;;;2.20;;
4909;SDS011;2470;49.868;8.660;2023-04-15T00:34:14;7.93;;;2.20;;
4909;SDS011;2470;49.868;8.660;2023-04-15T00:36:39;3.47;;;1.70;;
4909;SDS011;2470;49.868;8.660;2023-04-15T00:39:05;4.10;;;1.90;;
4909;SDS011;2470;49.868;8.660;2023-04-15T00:41:30;5.10;;;1.93;;
4909;SDS011;2470;49.868;8.660;2023-04-15T00:43:58;4.60;;;2.13;;
4909;SDS011;2470;49.868;8.660;2023-04-15T00:46:24;1.83;;;1.50;;
4909;SDS011;2470;49.868;8.660;2023-04-15T00:48:52;1.50;;;1.40;;
4909;SDS011;2470;49.868;8.660;2023-04-15T00:51:19;6.50;;;2.23;;
4909;SDS011;2470;49.868;8.660;2023-04-15T00:53:44;7.43;;;2.07;;
4909;SDS011;2470;49.868;8.660;2023-04-15T00:56:10;5.13;;;2.17;;
4909;SDS011;2470;49.868;8.660;2023-04-15T00:58:36;2.47;;;1.73;;
4909;SDS011;2470;49.868;8.660;2023-04-15T01:01:01;10.00;;;2.20;;
4909;SDS011;2470;49.868;8.660;2023-04-15T01:03:28;3.00;;;1.93;;
4909;SDS011;2470;49.868;8.660;2023-04-15T01:05:54;3.73;;;2.50;;
4909;SDS011;2470;49.868;8.660;2023-04-15T01:08:25;6.70;;;2.20;;
4909;SDS011;2470;49.868;8.660;2023-04-15T01:10:55;5.03;;;2.40;;
4909;SDS011;2470;49.868;8.660;2023-04-15T01:13:22;7.00;;;2.10;;
4909;SDS011;2470;49.868;8.660;2023-04-15T01:15:49;3.63;;;1.80;;
4909;SDS011;2470;49.868;8.660;2023-04-15T01:18:15;1.50;;;1.40;;
4909;SDS011;2470;49.868;8.660;2023-04-15T01:20:41;1.33;;;1.23;;
4909;SDS011;2470;49.868;8.660;2023-04-15T01:23:07;2.53;;;2.00;;
4909;SDS011;2470;49.868;8.660;2023-04-15T01:25:33;1.73;;;1.57;;
4909;SDS011;2470;49.868;8.660;2023-04-15T01:27:59;2.30;;;2.00;;
4909;SDS011;2470;49.868;8.660;2023-04-15T01:30:25;2.33;;;1.80;;
4909;SDS011;2470;49.868;8.660;2023-04-15T01:32:53;3.30;;;2.00;;
4909;SDS011;2470;49.868;8.660;2023-04-15T01:35:20;1.60;;;1.50;;
4909;SDS011;2470;49.868;8.660;2023-04-15T01:37:46;2.53;;;2.00;;
4909;SDS011;2470;49.868;8.660;2023-04-15T01:40:12;2.47;;;2.27;;
4909;SDS011;2470;49.868;8.660;2023-04-15T01:42:38;2.13;;;1.70;;
4909;SDS011;2470;49.868;8.660;2023-04-15T01:45:03;2.10;;;1.80;;
4909;SDS011;2470;49.868;8.660;2023-04-15T01:47:30;2.43;;;1.93;;
4909;SDS011;2470;49.868;8.660;2023-04-15T01:49:56;3.63;;;1.80;;
4909;SDS011;2470;49.868;8.660;2023-04-15T01:52:21;11.43;;;1.70;;
4909;SDS011;2470;49.868;8.660;2023-04-15T01:54:47;1.33;;;1.23;;
4909;SDS011;2470;49.868;8.660;2023-04-15T01:57:12;3.47;;;2.00;;
4909;SDS011;2470;49.868;8.660;2023-04-15T01:59:38;1.83;;;1.73;;
4909;SDS011;2470;49.868;8.660;2023-04-15T02:02:05;2.40;;;1.63;;
4909;SDS011;2470;49.868;8.660;2023-04-15T02:04:30;5.70;;;1.57;;
4909;SDS011;2470;49.868;8.660;2023-04-15T02:06:56;3.80;;;2.07;;
4909;SDS011;2470;49.868;8.660;2023-04-15T02:09:22;2.47;;;2.10;;
4909;SDS011;2470;49.868;8.660;2023-04-15T02:11:47;1.60;;;1.50;;
4909;SDS011;2470;49.868;8.660;2023-04-15T02:14:13;3.00;;;2.03;;
4909;SDS011;2470;49.868;8.660;2023-04-15T02:16:38;2.90;;;1.97;;
4909;SDS011;2470;49.868;8.660;2023-04-15T02:19:04;12.33;;;2.53;;
4909;SDS011;2470;49.868;8.660;2023-04-15T02:21:30;1.73;;;1.63;;
4909;SDS011;2470;49.868;8.660;2023-04-15T02:23:55;3.40;;;1.53;;
4909;SDS011;2470;49.868;8.660;2023-04-15T02:26:21;2.87;;;1.93;;
4909;SDS011;2470;49.868;8.660;2023-04-15T02:28:47;4.93;;;2.23;;
4909;SDS011;2470;49.868;8.660;2023-04-15T02:31:15;4.23;;;1.30;;
4909;SDS011;2470;49.868;8.660;2023-04-15T02:33:41;10.60;;;1.90;;
4909;SDS011;2470;49.868;8.660;2023-04-15T02:36:07;2.40;;;2.20;;
4909;SDS011;2470;49.868;8.660;2023-04-15T02:38:33;2.23;;;1.97;;
4909;SDS011;2470;49.868;8.660;2023-04-15T02:40:58;1.93;;;1.80;;
4909;SDS011;2470;49.868;8.660;2023-04-15T02:43:24;3.47;;;2.23;;
4909;SDS011;2470;49.868;8.660;2023-04-15T02:45:49;4.03;;;2.53;;
4909;SDS011;2470;49.868;8.660;2023-04-15T02:48:16;2.10;;;1.90;;
4909;SDS011;2470;49.868;8.660;2023-04-15T02:50:43;4.93;;;3.37;;
4909;SDS011;2470;49.868;8.660;2023-04-15T02:53:09;2.73;;;2.53;;
4909;SDS011;2470;49.868;8.660;2023-04-15T02:55:35;8.07;;;2.17;;
4909;SDS011;2470;49.868;8.660;2023-04-15T02:58:00;1.70;;;1.60;;
4909;SDS011;2470;49.868;8.660;2023-04-15T03:00:26;2.27;;;1.57;;
4909;SDS011;2470;49.868;8.660;2023-04-15T03:02:56;1.67;;;1.57;;
4909;SDS011;2470;49.868;8.660;2023-04-15T03:05:23;3.00;;;1.70;;
4909;SDS011;2470;49.868;8.660;2023-04-15T03:07:49;1.70;;;1.60;;
4909;SDS011;2470;49.868;8.660;2023-04-15T03:10:16;2.33;;;1.57;;
4909;SDS011;2470;49.868;8.660;2023-04-15T03:12:41;5.80;;;1.83;;
4909;SDS011;2470;49.868;8.660;2023-04-15T03:15:07;2.87;;;2.07;;
4909;SDS011;2470;49.868;8.660;2023-04-15T03:17:33;2.00;;;1.67;;
4909;SDS011;2470;49.868;8.660;2023-04-15T03:20:02;3.57;;;1.93;;
4909;SDS011;2470;49.868;8.660;2023-04-15T03:22:31;1.40;;;1.30;;
4909;SDS011;2470;49.868;8.660;2023-04-15T03:24:57;4.00;;;1.93;;
4909;SDS011;2470;49.868;8.660;2023-04-15T03:27:23;2.90;;;1.97;;
4909;SDS011;2470;49.868;8.660;2023-04-15T03:29:49;1.63;;;1.53;;
4909;SDS011;2470;49.868;8.660;2023-04-15T03:32:16;7.77;;;2.77;;
4909;SDS011;2470;49.868;8.660;2023-04-15T03:34:41;3.20;;;1.53;;
4909;SDS011;2470;49.868;8.660;2023-04-15T03:37:07;2.63;;;2.17;;
4909;SDS011;2470;49.868;8.660;2023-04-15T03:39:33;2.70;;;1.53;;
4909;SDS011;2470;49.868;8.660;2023-04-15T03:41:59;2.10;;;1.90;;
4909;SDS011;2470;49.868;8.660;2023-04-15T03:44:25;6.00;;;1.80;;
4909;SDS011;2470;49.868;8.660;2023-04-15T03:46:51;7.53;;;1.80;;
4909;SDS011;2470;49.868;8.660;2023-04-15T03:49:17;3.20;;;1.80;;
4909;SDS011;2470;49.868;8.660;2023-04-15T03:51:43;2.67;;;1.90;;
4909;SDS011;2470;49.868;8.660;2023-04-15T03:54:09;1.97;;;1.80;;
4909;SDS011;2470;49.868;8.660;2023-04-15T03:56:35;2.03;;;1.83;;
4909;SDS011;2470;49.868;8.660;2023-04-15T03:59:00;3.07;;;1.77;;
4909;SDS011;2470;49.868;8.660;2023-04-15T04:01:26;3.00;;;1.50;;
4909;SDS011;2470;49.868;8.660;2023-04-15T04:03:51;1.97;;;1.77;;
4909;SDS011;2470;49.868;8.660;2023-04-15T04:06:17;2.13;;;1.93;;
4909;SDS011;2470;49.868;8.660;2023-04-15T04:08:42;3.83;;;1.63;;
4909;SDS011;2470;49.868;8.660;2023-04-15T04:11:08;1.97;;;1.30;;
4909;SDS011;2470;49.868;8.660;2023-04-15T04:13:33;2.00;;;1.70;;
4909;SDS011;2470;49.868;8.660;2023-04-15T04:15:59;2.47;;;1.60;;
4909;SDS011;2470;49.868;8.660;2023-04-15T04:18:25;1.73;;;1.60;;
4909;SDS011;2470;49.868;8.660;2023-04-15T04:20:51;6.00;;;1.90;;
4909;SDS011;2470;49.868;8.660;2023-04-15T04:23:16;5.07;;;2.33;;
4909;SDS011;2470;49.868;8.660;2023-04-15T04:25:42;1.60;;;1.50;;
4909;SDS011;2470;49.868;8.660;2023-04-15T04:28:07;4.10;;;2.07;;
4909;SDS011;2470;49.868;8.660;2023-04-15T04:30:34;3.10;;;1.80;;
4909;SDS011;2470;49.868;8.660;2023-04-15T04:33:00;1.90;;;1.70;;
4909;SDS011;2470;49.868;8.660;2023-04-15T04:35:25;2.20;;;1.90;;
4909;SDS011;2470;49.868;8.660;2023-04-15T04:37:51;3.30;;;2.20;;
4909;SDS011;2470;49.868;8.660;2023-04-15T04:40:17;1.50;;;1.40;;
4909;SDS011;2470;49.868;8.660;2023-04-15T04:42:43;4.07;;;2.27;;
4909;SDS011;2470;49.868;8.660;2023-04-15T04:45:09;3.03;;;1.60;;
4909;SDS011;2470;49.868;8.660;2023-04-15T04:47:34;2.00;;;1.80;;
4909;SDS011;2470;49.868;8.660;2023-04-15T04:50:00;2.30;;;1.93;;
4909;SDS011;2470;49.868;8.660;2023-04-15T04:52:25;2.27;;;1.70;;
4909;SDS011;2470;49.868;8.660;2023-04-15T04:54:51;4.77;;;1.80;;
4909;SDS011;2470;49.868;8.660;2023-04-15T04:57:16;6.00;;;1.83;;
4909;SDS011;2470;49.868;8.660;2023-04-15T04:59:42;2.17;;;2.00;;
4909;SDS011;2470;49.868;8.660;2023-04-15T05:02:07;3.60;;;2.10;;
4909;SDS011;2470;49.868;8.660;2023-04-15T05:04:33;2.67;;;2.23;;
4909;SDS011;2470;49.868;8.660;2023-04-15T05:06:59;4.27;;;1.90;;
4909;SDS011;2470;49.868;8.660;2023-04-15T05:09:24;2.60;;;1.20;;
4909;SDS011;2470;49.868;8.660;2023-04-15T05:11:50;2.20;;;1.80;;
4909;SDS011;2470;49.868;8.660;2023-04-15T05:14:15;2.13;;;1.77;;
4909;SDS011;2470;49.868;8.660;2023-04-15T05:16:41;2.20;;;2.00;;
4909;SDS011;2470;49.868;8.660;2023-04-15T05:19:06;6.40;;;2.60;;
4909;SDS011;2470;49.868;8.660;2023-04-15T05:21:32;4.83;;;2.47;;
4909;SDS011;2470;49.868;8.660;2023-04-15T05:23:57;4.13;;;2.37;;
4909;SDS011;2470;49.868;8.660;2023-04-15T05:26:23;1.67;;;1.57;;
4909;SDS011;2470;49.868;8.660;2023-04-15T05:28:49;4.07;;;2.00;;
4909;SDS011;2470;49.868;8.660;2023-04-15T05:31:14;1.80;;;1.70;;
4909;SDS011;2470;49.868;8.660;2023-04-15T05:33:40;2.90;;;1.70;;
4909;SDS011;2470;49.868;8.660;2023-04-15T05:36:06;4.07;;;2.10;;
4909;SDS011;2470;49.868;8.660;2023-04-15T05:38:31;1.80;;;1.57;;
4909;SDS011;2470;49.868;8.660;2023-04-15T05:40:57;1.73;;;1.63;;
4909;SDS011;2470;49.868;8.660;2023-04-15T05:43:23;4.93;;;2.40;;
4909;SDS011;2470;49.868;8.660;2023-04-15T05:45:48;33.73;;;2.23;;
4909;SDS011;2470;49.868;8.660;2023-04-15T05:48:14;2.27;;;2.07;;
4909;SDS011;2470;49.868;8.660;2023-04-15T05:50:40;3.63;;;2.20;;
4909;SDS011;2470;49.868;8.660;2023-04-15T05:53:06;3.00;;;1.97;;
4909;SDS011;2470;49.868;8.660;2023-04-15T05:55:32;2.70;;;2.50;;
4909;SDS011;2470;49.868;8.660;2023-04-15T05:57:57;3.13;;;2.13;;
4909;SDS011;2470;49.868;8.660;2023-04-15T06:00:23;4.30;;;2.50;;
4909;SDS011;2470;49.868;8.660;2023-04-15T06:02:49;6.10;;;3.03;;
4909;SDS011;2470;49.868;8.660;2023-04-15T06:05:14;60.17;;;23.10;;
4909;SDS011;2470;49.868;8.660;2023-04-15T06:07:40;84.50;;;28.50;;
4909;SDS011;2470;49.868;8.660;2023-04-15T06:10:07;29.13;;;10.97;;
4909;SDS011;2470;49.868;8.660;2023-04-15T06:12:33;19.43;;;7.90;;
4909;SDS011;2470;49.868;8.660;2023-04-15T06:14:59;12.37;;;7.37;;
4909;SDS011;2470;49.868;8.660;2023-04-15T06:17:25;18.90;;;7.17;;
4909;SDS011;2470;49.868;8.660;2023-04-15T06:19:51;18.07;;;7.20;;
4909;SDS011;2470;49.868;8.660;2023-04-15T06:22:20;32.67;;;12.83;;
4909;SDS011;2470;49.868;8.660;2023-04-15T06:24:48;25.57;;;10.13;;
4909;SDS011;2470;49.868;8.660;2023-04-15T06:27:15;13.23;;;5.20;;
4909;SDS011;2470;49.868;8.660;2023-04-15T06:29:41;3.67;;;2.40;;
4909;SDS011;2470;49.868;8.660;2023-04-15T06:32:06;72.60;;;21.27;;
4909;SDS011;2470;49.868;8.660;2023-04-15T06:34:32;73.10;;;22.80;;
4909;SDS011;2470;49.868;8.660;2023-04-15T06:36:57;27.60;;;6.73;;
4909;SDS011;2470;49.868;8.660;2023-04-15T06:39:23;12.27;;;4.73;;
4909;SDS011;2470;49.868;8.660;2023-04-15T06:41:48;64.67;;;21.70;;
4909;SDS011;2470;49.868;8.660;2023-04-15T06:44:15;38.67;;;13.27;;
4909;SDS011;2470;49.868;8.660;2023-04-15T06:46:40;20.90;;;7.90;;
4909;SDS011;2470;49.868;8.660;2023-04-15T06:49:06;15.93;;;5.80;;
4909;SDS011;2470;49.868;8.660;2023-04-15T06:51:33;30.30;;;11.17;;
4909;SDS011;2470;49.868;8.660;2023-04-15T06:53:59;29.73;;;10.07;;
4909;SDS011;2470;49.868;8.660;2023-04-15T06:56:26;64.93;;;17.63;;
4909;SDS011;2470;49.868;8.660;2023-04-15T06:58:52;74.37;;;22.37;;
4909;SDS011;2470;49.868;8.660;2023-04-15T07:01:17;60.63;;;17.93;;
4909;SDS011;2470;49.868;8.660;2023-04-15T07:03:43;25.77;;;10.93;;
4909;SDS011;2470;49.868;8.660;2023-04-15T07:06:09;10.53;;;6.43;;
4909;SDS011;2470;49.868;8.660;2023-04-15T07:08:34;6.03;;;4.30;;
4909;SDS011;2470;49.868;8.660;2023-04-15T07:11:00;4.77;;;3.63;;
4909;SDS011;2470;49.868;8.660;2023-04-15T07:13:26;5.87;;;2.80;;
4909;SDS011;2470;49.868;8.660;2023-04-15T07:15:51;5.60;;;3.17;;
4909;SDS011;2470;49.868;8.660;2023-04-15T07:18:20;6.73;;;5.40;;
4909;SDS011;2470;49.868;8.660;2023-04-15T07:20:46;5.20;;;3.50;;
4909;SDS011;2470;49.868;8.660;2023-04-15T07:23:12;6.80;;;4.37;;
4909;SDS011;2470;49.868;8.660;2023-04-15T07:25:38;17.83;;;4.27;;
4909;SDS011;2470;49.868;8.660;2023-04-15T07:28:03;6.80;;;3.70;;
4909;SDS011;2470;49.868;8.660;2023-04-15T07:30:29;5.13;;;3.40;;
4909;SDS011;2470;49.868;8.660;2023-04-15T07:32:54;4.77;;;3.77;;
4909;SDS011;2470;49.868;8.660;2023-04-15T07:35:20;4.83;;;3.67;;
4909;SDS011;2470;49.868;8.660;2023-04-15T07:37:46;4.70;;;3.00;;
4909;SDS011;2470;49.868;8.660;2023-04-15T07:40:12;5.33;;;3.47;;
4909;SDS011;2470;49.868;8.660;2023-04-15T07:42:38;3.43;;;2.80;;
4909;SDS011;2470;49.868;8.660;2023-04-15T07:45:05;3.47;;;3.00;;
4909;SDS011;2470;49.868;8.660;2023-04-15T07:47:31;5.80;;;3.80;;
4909;SDS011;2470;49.868;8.660;2023-04-15T07:49:56;4.90;;;3.20;;
4909;SDS011;2470;49.868;8.660;2023-04-15T07:52:22;3.73;;;3.20;;
4909;SDS011;2470;49.868;8.660;2023-04-15T07:54:47;4.30;;;3.63;;
4909;SDS011;2470;49.868;8.660;2023-04-15T07:57:13;9.90;;;3.70;;
4909;SDS011;2470;49.868;8.660;2023-04-15T07:59:38;4.10;;;3.03;;
4909;SDS011;2470;49.868;8.660;2023-04-15T08:02:04;15.63;;;3.80;;
4909;SDS011;2470;49.868;8.660;2023-04-15T08:04:30;7.07;;;4.20;;
4909;SDS011;2470;49.868;8.660;2023-04-15T08:06:56;4.23;;;3.27;;
4909;SDS011;2470;49.868;8.660;2023-04-15T08:09:22;5.20;;;3.27;;
4909;SDS011;2470;49.868;8.660;2023-04-15T08:11:48;5.83;;;3.20;;
4909;SDS011;2470;49.868;8.660;2023-04-15T08:14:14;7.23;;;4.53;;
4909;SDS011;2470;49.868;8.660;2023-04-15T08:16:40;5.10;;;3.80;;
4909;SDS011;2470;49.868;8.660;2023-04-15T08:19:06;5.47;;;3.67;;
4909;SDS011;2470;49.868;8.660;2023-04-15T08:21:31;5.20;;;3.20;;
4909;SDS011;2470;49.868;8.660;2023-04-15T08:23:58;5.43;;;3.63;;
4909;SDS011;2470;49.868;8.660;2023-04-15T08:26:24;7.80;;;4.43;;
4909;SDS011;2470;49.868;8.660;2023-04-15T08:28:50;16.63;;;4.23;;
4909;SDS011;2470;49.868;8.660;2023-04-15T08:31:16;4.40;;;3.07;;
4909;SDS011;2470;49.868;8.660;2023-04-15T08:33:42;4.70;;;3.80;;
4909;SDS011;2470;49.868;8.660;2023-04-15T08:36:08;4.40;;;3.50;;
4909;SDS011;2470;49.868;8.660;2023-04-15T08:38:34;11.10;;;5.40;;
4909;SDS011;2470;49.868;8.660;2023-04-15T08:41:02;6.07;;;3.57;;
4909;SDS011;2470;49.868;8.660;2023-04-15T08:43:34;7.40;;;3.60;;
4909;SDS011;2470;49.868;8.660;2023-04-15T08:46:10;5.33;;;3.40;;
4909;SDS011;2470;49.868;8.660;2023-04-15T08:48:37;3.90;;;2.53;;
4909;SDS011;2470;49.868;8.660;2023-04-15T08:51:04;5.27;;;3.77;;
4909;SDS011;2470;49.868;8.660;2023-04-15T08:53:31;5.10;;;3.03;;
4909;SDS011;2470;49.868;8.660;2023-04-15T08:55:57;3.60;;;2.50;;
4909;SDS011;2470;49.868;8.660;2023-04-15T08:58:26;4.23;;;2.50;;
4909;SDS011;2470;49.868;8.660;2023-04-15T09:00:52;3.20;;;2.33;;
4909;SDS011;2470;49.868;8.660;2023-04-15T09:03:20;7.10;;;3.03;;
4909;SDS011;2470;49.868;8.660;2023-04-15T09:05:47;2.90;;;2.40;;
4909;SDS011;2470;49.868;8.660;2023-04-15T09:08:14;4.00;;;2.30;;
4909;SDS011;2470;49.868;8.660;2023-04-15T09:10:40;5.60;;;3.17;;
4909;SDS011;2470;49.868;8.660;2023-04-15T09:13:05;1.77;;;1.63;;
4909;SDS011;2470;49.868;8.660;2023-04-15T09:15:31;2.10;;;1.90;;
4909;SDS011;2470;49.868;8.660;2023-04-15T09:17:57;4.47;;;2.37;;
4909;SDS011;2470;49.868;8.660;2023-04-15T09:20:22;5.97;;;2.47;;
4909;SDS011;2470;49.868;8.660;2023-04-15T09:22:48;2.73;;;2.47;;
4909;SDS011;2470;49.868;8.660;2023-04-15T09:27:47;1.97;;;1.77;;
4909;SDS011;2470;49.868;8.660;2023-04-15T09:30:13;2.20;;;1.63;;
4909;SDS011;2470;49.868;8.660;2023-04-15T09:32:47;2.20;;;1.87;;
4909;SDS011;2470;49.868;8.660;2023-04-15T09:35:17;3.30;;;1.63;;
4909;SDS011;2470;49.868;8.660;2023-04-15T09:37:43;1.50;;;1.40;;
4909;SDS011;2470;49.868;8.660;2023-04-15T09:40:09;1.50;;;1.40;;
4909;SDS011;2470;49.868;8.660;2023-04-15T09:42:35;2.07;;;1.43;;
4909;SDS011;2470;49.868;8.660;2023-04-15T09:45:09;1.27;;;1.17;;
4909;SDS011;2470;49.868;8.660;2023-04-15T09:47:36;1.90;;;1.43;;
4909;SDS011;2470;49.868;8.660;2023-04-15T09:50:01;2.13;;;1.90;;
4909;SDS011;2470;49.868;8.660;2023-04-15T09:52:27;1.70;;;1.40;;
4909;SDS011;2470;49.868;8.660;2023-04-15T09:54:54;2.17;;;1.70;;
4909;SDS011;2470;49.868;8.660;2023-04-15T09:57:22;1.30;;;1.20;;
4909;SDS011;2470;49.868;8.660;2023-04-15T09:59:48;1.85;;;1.48;;
4909;SDS011;2470;49.868;8.660;2023-04-15T10:02:14;1.38;;;1.27;;
4909;SDS011;2470;49.868;8.660;2023-04-15T10:04:42;5.27;;;2.77;;
4909;SDS011;2470;49.868;8.660;2023-04-15T10:07:08;2.10;;;1.23;;
4909;SDS011;2470;49.868;8.660;2023-04-15T10:09:35;11.02;;;2.00;;
4909;SDS011;2470;49.868;8.660;2023-04-15T10:12:03;4.70;;;1.83;;
4909;SDS011;2470;49.868;8.660;2023-04-15T10:14:31;3.10;;;2.47;;
4909;SDS011;2470;49.868;8.660;2023-04-15T10:17:00;3.40;;;1.60;;
4909;SDS011;2470;49.868;8.660;2023-04-15T10:19:27;2.25;;;1.73;;
4909;SDS011;2470;49.868;8.660;2023-04-15T10:21:57;1.75;;;1.58;;
4909;SDS011;2470;49.868;8.660;2023-04-15T10:24:23;2.25;;;1.50;;
4909;SDS011;2470;49.868;8.660;2023-04-15T10:26:50;2.22;;;1.88;;
4909;SDS011;2470;49.868;8.660;2023-04-15T10:29:16;2.90;;;1.60;;
4909;SDS011;2470;49.868;8.660;2023-04-15T10:31:41;1.60;;;1.50;;
4909;SDS011;2470;49.868;8.660;2023-04-15T10:34:08;1.58;;;1.30;;
4909;SDS011;2470;49.868;8.660;2023-04-15T10:36:34;2.72;;;1.67;;
4909;SDS011;2470;49.868;8.660;2023-04-15T10:39:00;2.83;;;1.60;;
4909;SDS011;2470;49.868;8.660;2023-04-15T10:41:27;2.85;;;1.70;;
4909;SDS011;2470;49.868;8.660;2023-04-15T10:44:01;1.52;;;1.23;;
4909;SDS011;2470;49.868;8.660;2023-04-15T10:46:37;7.30;;;2.08;;
4909;SDS011;2470;49.868;8.660;2023-04-15T10:49:14;2.20;;;1.83;;
4909;SDS011;2470;49.868;8.660;2023-04-15T10:51:42;2.63;;;1.60;;
4909;SDS011;2470;49.868;8.660;2023-04-15T10:54:13;1.67;;;1.58;;
4909;SDS011;2470;49.868;8.660;2023-04-15T10:56:41;2.78;;;1.70;;
4909;SDS011;2470;49.868;8.660;2023-04-15T10:59:15;3.60;;;1.57;;
4909;SDS011;2470;49.868;8.660;2023-04-15T11:01:53;2.08;;;1.63;;
4909;SDS011;2470;49.868;8.660;2023-04-15T11:07:32;2.80;;;1.40;;
4909;SDS011;2470;49.868;8.660;2023-04-15T11:10:03;2.03;;;1.42;;
4909;SDS011;2470;49.868;8.660;2023-04-15T11:12:49;1.50;;;1.40;;
4909;SDS011;2470;49.868;8.660;2023-04-15T11:15:23;3.97;;;1.70;;
4909;SDS011;2470;49.868;8.660;2023-04-15T11:20:45;2.35;;;1.50;;
4909;SDS011;2470;49.868;8.660;2023-04-15T11:23:14;1.33;;;1.23;;
4909;SDS011;2470;49.868;8.660;2023-04-15T11:25:42;6.60;;;2.10;;
4909;SDS011;2470;49.868;8.660;2023-04-15T11:28:08;1.20;;;1.10;;
4909;SDS011;2470;49.868;8.660;2023-04-15T11:30:34;1.60;;;1.27;;
4909;SDS011;2470;49.868;8.660;2023-04-15T11:33:02;1.63;;;1.23;;
4909;SDS011;2470;49.868;8.660;2023-04-15T11:35:29;1.63;;;1.52;;
4909;SDS011;2470;49.868;8.660;2023-04-15T11:37:55;2.20;;;1.60;;
4909;SDS011;2470;49.868;8.660;2023-04-15T11:40:23;3.30;;;2.00;;
4909;SDS011;2470;49.868;8.660;2023-04-15T11:43:06;1.80;;;1.52;;
4909;SDS011;2470;49.868;8.660;2023-04-15T11:45:54;2.20;;;1.90;;
4909;SDS011;2470;49.868;8.660;2023-04-15T11:48:22;3.40;;;1.75;;
4909;SDS011;2470;49.868;8.660;2023-04-15T11:50:55;2.63;;;1.65;;
4909;SDS011;2470;49.868;8.660;2023-04-15T11:53:23;1.30;;;1.20;;
4909;SDS011;2470;49.868;8.660;2023-04-15T11:55:50;2.38;;;1.80;;
4909;SDS011;2470;49.868;8.660;2023-04-15T11:58:18;3.42;;;1.45;;
4909;SDS011;2470;49.868;8.660;2023-04-15T12:00:51;2.08;;;1.48;;
4909;SDS011;2470;49.868;8.660;2023-04-15T12:03:31;2.35;;;1.73;;
4909;SDS011;2470;49.868;8.660;2023-04-15T12:06:21;1.50;;;1.40;;
4909;SDS011;2470;49.868;8.660;2023-04-15T12:08:51;3.53;;;1.40;;
4909;SDS011;2470;49.868;8.660;2023-04-15T12:13:52;1.83;;;1.63;;
4909;SDS011;2470;49.868;8.660;2023-04-15T12:16:20;2.30;;;1.60;;
4909;SDS011;2470;49.868;8.660;2023-04-15T12:18:50;2.33;;;1.50;;
4909;SDS011;2470;49.868;8.660;2023-04-15T12:21:19;2.53;;;1.20;;
4909;SDS011;2470;49.868;8.660;2023-04-15T12:23:49;2.30;;;1.23;;
4909;SDS011;2470;49.868;8.660;2023-04-15T12:26:42;1.63;;;1.13;;
4909;SDS011;2470;49.868;8.660;2023-04-15T12:29:16;1.30;;;1.20;;
4909;SDS011;2470;49.868;8.660;2023-04-15T12:31:48;2.60;;;1.80;;
4909;SDS011;2470;49.868;8.660;2023-04-15T12:34:28;1.33;;;1.13;;
4909;SDS011;2470;49.868;8.660;2023-04-15T12:36:55;1.27;;;1.00;;
4909;SDS011;2470;49.868;8.660;2023-04-15T12:39:23;1.33;;;1.23;;
4909;SDS011;2470;49.868;8.660;2023-04-15T12:41:49;2.65;;;1.42;;
4909;SDS011;2470;49.868;8.660;2023-04-15T12:44:15;2.63;;;1.60;;
4909;SDS011;2470;49.868;8.660;2023-04-15T12:46:40;2.37;;;1.60;;
4909;SDS011;2470;49.868;8.660;2023-04-15T12:49:06;2.38;;;2.10;;
4909;SDS011;2470;49.868;8.660;2023-04-15T12:51:33;1.88;;;1.52;;
4909;SDS011;2470;49.868;8.660;2023-04-15T12:53:58;2.00;;;1.80;;
4909;SDS011;2470;49.868;8.660;2023-04-15T12:56:24;2.80;;;1.90;;
4909;SDS011;2470;49.868;8.660;2023-04-15T12:58:49;1.70;;;1.50;;
4909;SDS011;2470;49.868;8.660;2023-04-15T13:01:15;2.90;;;1.50;;
4909;SDS011;2470;49.868;8.660;2023-04-15T13:03:41;2.93;;;2.10;;
4909;SDS011;2470;49.868;8.660;2023-04-15T13:06:07;1.97;;;1.77;;
4909;SDS011;2470;49.868;8.660;2023-04-15T13:08:32;4.30;;;2.00;;
4909;SDS011;2470;49.868;8.660;2023-04-15T13:10:58;4.50;;;2.43;;
4909;SDS011;2470;49.868;8.660;2023-04-15T13:13:24;3.10;;;2.13;;
4909;SDS011;2470;49.868;8.660;2023-04-15T13:15:50;2.77;;;1.90;;
4909;SDS011;2470;49.868;8.660;2023-04-15T13:18:15;3.30;;;2.00;;
4909;SDS011;2470;49.868;8.660;2023-04-15T13:20:41;2.90;;;2.60;;
4909;SDS011;2470;49.868;8.660;2023-04-15T13:23:06;2.47;;;2.20;;
4909;SDS011;2470;49.868;8.660;2023-04-15T13:25:32;3.00;;;2.27;;
4909;SDS011;2470;49.868;8.660;2023-04-15T13:27:57;2.17;;;1.70;;
4909;SDS011;2470;49.868;8.660;2023-04-15T13:30:25;1.70;;;1.60;;
4909;SDS011;2470;49.868;8.660;2023-04-15T13:32:51;2.03;;;1.77;;
4909;SDS011;2470;49.868;8.660;2023-04-15T13:35:17;2.47;;;1.93;;
4909;SDS011;2470;49.868;8.660;2023-04-15T13:37:43;2.83;;;1.97;;
4909;SDS011;2470;49.868;8.660;2023-04-15T13:40:09;2.50;;;1.80;;
4909;SDS011;2470;49.868;8.660;2023-04-15T13:42:35;1.73;;;1.50;;
4909;SDS011;2470;49.868;8.660;2023-04-15T13:45:01;1.70;;;1.60;;
4909;SDS011;2470;49.868;8.660;2023-04-15T13:47:27;2.33;;;1.40;;
4909;SDS011;2470;49.868;8.660;2023-04-15T13:49:52;2.60;;;1.77;;
4909;SDS011;2470;49.868;8.660;2023-04-15T13:52:20;1.40;;;1.30;;
4909;SDS011;2470;49.868;8.660;2023-04-15T13:54:45;2.10;;;1.53;;
4909;SDS011;2470;49.868;8.660;2023-04-15T13:57:11;3.17;;;1.63;;
4909;SDS011;2470;49.868;8.660;2023-04-15T13:59:40;1.43;;;1.13;;
4909;SDS011;2470;49.868;8.660;2023-04-15T14:02:06;1.60;;;1.40;;
4909;SDS011;2470;49.868;8.660;2023-04-15T14:04:31;1.63;;;1.53;;
4909;SDS011;2470;49.868;8.660;2023-04-15T14:07:00;1.30;;;1.20;;
4909;SDS011;2470;49.868;8.660;2023-04-15T14:09:29;2.80;;;1.40;;
4909;SDS011;2470;49.868;8.660;2023-04-15T14:11:55;1.20;;;1.10;;
4909;SDS011;2470;49.868;8.660;2023-04-15T14:14:20;2.73;;;1.10;;
4909;SDS011;2470;49.868;8.660;2023-04-15T14:16:46;2.23;;;1.63;;
4909;SDS011;2470;49.868;8.660;2023-04-15T14:19:12;1.40;;;1.30;;
4909;SDS011;2470;49.868;8.660;2023-04-15T14:21:38;6.90;;;1.70;;
4909;SDS011;2470;49.868;8.660;2023-04-15T14:24:04;1.30;;;1.20;;
4909;SDS011;2470;49.868;8.660;2023-04-15T14:26:38;3.07;;;1.70;;
4909;SDS011;2470;49.868;8.660;2023-04-15T14:29:04;2.10;;;1.40;;
4909;SDS011;2470;49.868;8.660;2023-04-15T14:31:30;4.57;;;2.57;;
4909;SDS011;2470;49.868;8.660;2023-04-15T14:33:55;1.77;;;1.30;;
4909;SDS011;2470;49.868;8.660;2023-04-15T14:36:21;2.60;;;1.27;;
4909;SDS011;2470;49.868;8.660;2023-04-15T14:38:46;2.63;;;1.77;;
4909;SDS011;2470;49.868;8.660;2023-04-15T14:41:12;4.90;;;1.20;;
4909;SDS011;2470;49.868;8.660;2023-04-15T14:43:37;1.83;;;1.40;;
4909;SDS011;2470;49.868;8.660;2023-04-15T14:46:03;1.20;;;1.00;;
4909;SDS011;2470;49.868;8.660;2023-04-15T14:48:29;1.40;;;1.30;;
4909;SDS011;2470;49.868;8.660;2023-04-15T14:50:55;1.47;;;1.37;;
4909;SDS011;2470;49.868;8.660;2023-04-15T14:53:21;2.90;;;2.10;;
4909;SDS011;2470;49.868;8.660;2023-04-15T14:55:47;1.30;;;1.20;;
4909;SDS011;2470;49.868;8.660;2023-04-15T14:58:12;2.00;;;1.80;;
4909;SDS011;2470;49.868;8.660;2023-04-15T15:00:38;1.10;;;1.00;;
4909;SDS011;2470;49.868;8.660;2023-04-15T15:03:06;1.50;;;1.10;;
4909;SDS011;2470;49.868;8.660;2023-04-15T15:05:43;1.73;;;1.50;;
4909;SDS011;2470;49.868;8.660;2023-04-15T15:08:10;1.33;;;1.20;;
4909;SDS011;2470;49.868;8.660;2023-04-15T15:10:37;1.80;;;1.33;;
4909;SDS011;2470;49.868;8.660;2023-04-15T15:13:03;1.30;;;1.20;;
4909;SDS011;2470;49.868;8.660;2023-04-15T15:15:30;0.90;;;0.90;;
4909;SDS011;2470;49.868;8.660;2023-04-15T15:17:56;2.10;;;1.67;;
4909;SDS011;2470;49.868;8.660;2023-04-15T15:20:22;1.83;;;1.27;;